Pagina principale
METAR-TAF:

METAR-TAF

Aeroporti :

Aeroporto Internazionale di Hato

Curaçao, Antille olandesi

latitudine: 12-12N, longitudine: 068-58W, altezza: 9 m

Osservazione

Il bollettino è stato emesso 57 minuti fa, alle 22:00 UTC
Vento 12 kt da est/sud-est
Temperature 28°C
Umidità 74%
Pressione 1013 hPa
Visibilità 10 km o più

METAR: TNCC 152200Z AUTO 11012KT 9999 NCD 28/23 Q1013 NOSIG

Ora: 18:57 (22:57 UTC)

Previsione

Il bollettino è stato emesso 7 ore e 12 minuti fa, alle 15:45 UTC
Previsione valida dal 15 alle 18 UTC al 16 alle 18 UTC
Vento 12 kt da est
Visibilità 10 km o più
Nubi sparse ad un'altezza di 2000 ft
Temporaneamente
dal 16 alle 04 UTC al 16 alle 14 UTC
Nuvoloso ad un'altezza di 1500 ft

TAF: TNCC 151545Z 1518/1618 10012KT 9999 SCT020 TEMPO 1604/1614 BKN015

Osservazioni e previsioni meteorologiche di più di 4000 aeroporti (messaggi METAR e TAF).

Le stazioni disponibili sono rappresentate dai dischi gialli e rossi sulla carta.

Puntare il mouse per vedere il nome della stazione.

Clicca sopra per visualizzare le osservazioni e previsioni meteorologiche.

Per cambiare la mappa : fare clic sui pulsanti verdi con una croce nera per ingrandire, il pulsante verde con un trattino per diminuire, o sulla freccia verde per le mappe adiacenti.


METAR-TAF: